sensor_id;sensor_type;location;lat;lon;timestamp;pressure;altitude;pressure_sealevel;temperature;humidity
64853;BME280;56050;55.558;-4.644;2022-10-16T00:00:17;99230.16;;;11.34;64.67
64853;BME280;56050;55.558;-4.644;2022-10-16T00:02:42;99227.47;;;11.34;64.53
64853;BME280;56050;55.558;-4.644;2022-10-16T00:05:08;99247.88;;;11.35;64.37
64853;BME280;56050;55.558;-4.644;2022-10-16T00:07:33;99240.88;;;11.37;64.30
64853;BME280;56050;55.558;-4.644;2022-10-16T00:09:59;99244.31;;;11.38;63.37
64853;BME280;56050;55.558;-4.644;2022-10-16T00:12:24;99247.25;;;11.43;63.48
64853;BME280;56050;55.558;-4.644;2022-10-16T00:14:50;99261.38;;;11.47;63.32
64853;BME280;56050;55.558;-4.644;2022-10-16T00:17:15;99270.13;;;11.51;63.01
64853;BME280;56050;55.558;-4.644;2022-10-16T00:19:41;99273.16;;;11.53;62.94
64853;BME280;56050;55.558;-4.644;2022-10-16T00:22:06;99280.72;;;11.58;62.90
64853;BME280;56050;55.558;-4.644;2022-10-16T00:24:32;99281.47;;;11.59;62.72
64853;BME280;56050;55.558;-4.644;2022-10-16T00:26:57;99298.84;;;11.58;62.66
64853;BME280;56050;55.558;-4.644;2022-10-16T00:29:23;99302.72;;;11.57;62.53
64853;BME280;56050;55.558;-4.644;2022-10-16T00:31:48;99300.88;;;11.54;62.71
64853;BME280;56050;55.558;-4.644;2022-10-16T00:34:13;99298.91;;;11.54;62.51
64853;BME280;56050;55.558;-4.644;2022-10-16T00:36:39;99299.69;;;11.55;62.17
64853;BME280;56050;55.558;-4.644;2022-10-16T00:39:04;99304.66;;;11.56;62.60
64853;BME280;56050;55.558;-4.644;2022-10-16T00:41:30;99305.75;;;11.59;62.52
64853;BME280;56050;55.558;-4.644;2022-10-16T00:43:59;99304.13;;;11.61;62.39
64853;BME280;56050;55.558;-4.644;2022-10-16T00:46:37;99308.34;;;11.62;62.41
64853;BME280;56050;55.558;-4.644;2022-10-16T00:49:21;99305.66;;;11.62;62.23
64853;BME280;56050;55.558;-4.644;2022-10-16T00:51:52;99310.94;;;11.66;62.17
64853;BME280;56050;55.558;-4.644;2022-10-16T00:54:28;99321.31;;;11.67;61.97
64853;BME280;56050;55.558;-4.644;2022-10-16T00:56:55;99330.59;;;11.66;62.17
64853;BME280;56050;55.558;-4.644;2022-10-16T00:59:27;99333.91;;;11.58;62.28
64853;BME280;56050;55.558;-4.644;2022-10-16T01:01:53;99336.78;;;11.51;62.43
64853;BME280;56050;55.558;-4.644;2022-10-16T01:04:20;99346.16;;;11.46;62.66
64853;BME280;56050;55.558;-4.644;2022-10-16T01:09:31;99353.38;;;11.49;62.98
64853;BME280;56050;55.558;-4.644;2022-10-16T01:12:12;99359.97;;;11.48;63.13
64853;BME280;56050;55.558;-4.644;2022-10-16T01:17:08;99366.97;;;11.46;63.28
64853;BME280;56050;55.558;-4.644;2022-10-16T01:19:50;99364.03;;;11.40;63.27
64853;BME280;56050;55.558;-4.644;2022-10-16T01:22:24;99374.81;;;11.40;63.31
64853;BME280;56050;55.558;-4.644;2022-10-16T01:24:53;99375.56;;;11.41;63.54
64853;BME280;56050;55.558;-4.644;2022-10-16T01:27:30;99374.72;;;11.44;63.73
64853;BME280;56050;55.558;-4.644;2022-10-16T01:30:21;99387.69;;;11.49;63.86
64853;BME280;56050;55.558;-4.644;2022-10-16T01:33:40;99379.09;;;11.54;63.57
64853;BME280;56050;55.558;-4.644;2022-10-16T01:36:21;99393.66;;;11.56;63.25
64853;BME280;56050;55.558;-4.644;2022-10-16T01:38:51;99387.44;;;11.59;63.31
64853;BME280;56050;55.558;-4.644;2022-10-16T01:41:28;99378.91;;;11.61;63.17
64853;BME280;56050;55.558;-4.644;2022-10-16T01:44:09;99403.94;;;11.61;63.13
64853;BME280;56050;55.558;-4.644;2022-10-16T01:46:38;99402.78;;;11.62;63.02
64853;BME280;56050;55.558;-4.644;2022-10-16T01:49:06;99408.50;;;11.64;63.06
64853;BME280;56050;55.558;-4.644;2022-10-16T01:51:33;99410.34;;;11.67;63.11
64853;BME280;56050;55.558;-4.644;2022-10-16T01:54:01;99413.38;;;11.69;62.79
64853;BME280;56050;55.558;-4.644;2022-10-16T01:56:28;99405.72;;;11.68;61.65
64853;BME280;56050;55.558;-4.644;2022-10-16T01:59:15;99412.78;;;11.62;61.07
64853;BME280;56050;55.558;-4.644;2022-10-16T02:01:45;99408.56;;;11.61;61.42
64853;BME280;56050;55.558;-4.644;2022-10-16T02:04:24;99417.84;;;11.60;61.19
64853;BME280;56050;55.558;-4.644;2022-10-16T02:06:52;99410.09;;;11.62;61.14
64853;BME280;56050;55.558;-4.644;2022-10-16T02:09:18;99409.75;;;11.60;60.86
64853;BME280;56050;55.558;-4.644;2022-10-16T02:11:44;99415.91;;;11.60;60.90
64853;BME280;56050;55.558;-4.644;2022-10-16T02:14:09;99411.50;;;11.66;60.88
64853;BME280;56050;55.558;-4.644;2022-10-16T02:19:02;99424.75;;;11.77;61.18
64853;BME280;56050;55.558;-4.644;2022-10-16T02:21:35;99423.56;;;11.78;61.30
64853;BME280;56050;55.558;-4.644;2022-10-16T02:24:40;99436.50;;;11.70;61.64
64853;BME280;56050;55.558;-4.644;2022-10-16T02:29:53;99429.06;;;11.58;61.92
64853;BME280;56050;55.558;-4.644;2022-10-16T02:32:27;99426.03;;;11.56;62.04
64853;BME280;56050;55.558;-4.644;2022-10-16T02:34:56;99412.63;;;11.53;62.08
64853;BME280;56050;55.558;-4.644;2022-10-16T02:37:24;99420.41;;;11.51;62.15
64853;BME280;56050;55.558;-4.644;2022-10-16T02:39:50;99422.66;;;11.52;62.29
64853;BME280;56050;55.558;-4.644;2022-10-16T02:42:18;99424.19;;;11.53;62.48
64853;BME280;56050;55.558;-4.644;2022-10-16T02:44:43;99431.06;;;11.54;62.39
64853;BME280;56050;55.558;-4.644;2022-10-16T02:47:09;99424.94;;;11.54;62.47
64853;BME280;56050;55.558;-4.644;2022-10-16T02:49:34;99446.09;;;11.55;62.54
64853;BME280;56050;55.558;-4.644;2022-10-16T02:52:00;99441.03;;;11.57;62.68
64853;BME280;56050;55.558;-4.644;2022-10-16T02:54:25;99432.09;;;11.60;62.58
64853;BME280;56050;55.558;-4.644;2022-10-16T02:56:51;99451.31;;;11.62;62.79
64853;BME280;56050;55.558;-4.644;2022-10-16T02:59:17;99440.84;;;11.64;62.80
64853;BME280;56050;55.558;-4.644;2022-10-16T03:01:42;99446.56;;;11.66;63.45
64853;BME280;56050;55.558;-4.644;2022-10-16T03:04:08;99447.44;;;11.63;63.58
64853;BME280;56050;55.558;-4.644;2022-10-16T03:06:34;99468.34;;;11.59;62.82
64853;BME280;56050;55.558;-4.644;2022-10-16T03:08:59;99453.94;;;11.50;62.52
64853;BME280;56050;55.558;-4.644;2022-10-16T03:11:25;99463.63;;;11.47;62.46
64853;BME280;56050;55.558;-4.644;2022-10-16T03:13:51;99463.28;;;11.45;62.47
64853;BME280;56050;55.558;-4.644;2022-10-16T03:16:17;99471.38;;;11.45;62.17
64853;BME280;56050;55.558;-4.644;2022-10-16T03:18:42;99464.47;;;11.44;61.72
64853;BME280;56050;55.558;-4.644;2022-10-16T03:21:07;99458.41;;;11.40;61.76
64853;BME280;56050;55.558;-4.644;2022-10-16T03:23:33;99471.13;;;11.40;61.96
64853;BME280;56050;55.558;-4.644;2022-10-16T03:25:58;99466.84;;;11.42;62.26
64853;BME280;56050;55.558;-4.644;2022-10-16T03:28:24;99460.28;;;11.43;62.22
64853;BME280;56050;55.558;-4.644;2022-10-16T03:30:49;99475.59;;;11.46;62.36
64853;BME280;56050;55.558;-4.644;2022-10-16T03:33:15;99467.84;;;11.48;62.31
64853;BME280;56050;55.558;-4.644;2022-10-16T03:35:40;99470.88;;;11.50;62.18
64853;BME280;56050;55.558;-4.644;2022-10-16T03:38:06;99465.03;;;11.52;62.04
64853;BME280;56050;55.558;-4.644;2022-10-16T03:40:31;99470.78;;;11.54;62.05
64853;BME280;56050;55.558;-4.644;2022-10-16T03:43:00;99479.97;;;11.56;62.01
64853;BME280;56050;55.558;-4.644;2022-10-16T03:45:25;99482.25;;;11.58;61.97
64853;BME280;56050;55.558;-4.644;2022-10-16T03:47:52;99470.69;;;11.57;61.87
64853;BME280;56050;55.558;-4.644;2022-10-16T03:50:17;99457.72;;;11.52;62.52
64853;BME280;56050;55.558;-4.644;2022-10-16T03:52:42;99469.44;;;11.46;62.70
64853;BME280;56050;55.558;-4.644;2022-10-16T03:55:08;99481.16;;;11.39;63.29
64853;BME280;56050;55.558;-4.644;2022-10-16T03:57:33;99476.69;;;11.33;63.63
64853;BME280;56050;55.558;-4.644;2022-10-16T03:59:59;99473.31;;;11.29;63.97
64853;BME280;56050;55.558;-4.644;2022-10-16T04:02:24;99445.34;;;11.23;64.05
64853;BME280;56050;55.558;-4.644;2022-10-16T04:04:50;99465.38;;;11.21;64.29
64853;BME280;56050;55.558;-4.644;2022-10-16T04:07:15;99452.66;;;11.22;64.65
64853;BME280;56050;55.558;-4.644;2022-10-16T04:09:41;99464.22;;;11.23;64.75
64853;BME280;56050;55.558;-4.644;2022-10-16T04:12:07;99455.03;;;11.20;64.87
64853;BME280;56050;55.558;-4.644;2022-10-16T04:14:32;99440.47;;;11.17;65.97
64853;BME280;56050;55.558;-4.644;2022-10-16T04:16:58;99469.44;;;11.13;65.76
64853;BME280;56050;55.558;-4.644;2022-10-16T04:19:23;99452.16;;;11.11;65.99
64853;BME280;56050;55.558;-4.644;2022-10-16T04:21:48;99455.69;;;11.08;67.17
64853;BME280;56050;55.558;-4.644;2022-10-16T04:24:14;99471.09;;;11.07;67.87
64853;BME280;56050;55.558;-4.644;2022-10-16T04:26:39;99468.06;;;11.05;68.31
64853;BME280;56050;55.558;-4.644;2022-10-16T04:29:05;99470.69;;;11.09;68.75
64853;BME280;56050;55.558;-4.644;2022-10-16T04:31:31;99462.59;;;11.09;68.38
64853;BME280;56050;55.558;-4.644;2022-10-16T04:33:56;99476.09;;;11.09;68.63
64853;BME280;56050;55.558;-4.644;2022-10-16T04:36:22;99509.97;;;11.10;68.60
64853;BME280;56050;55.558;-4.644;2022-10-16T04:38:47;99520.38;;;11.08;68.80
64853;BME280;56050;55.558;-4.644;2022-10-16T04:41:13;99513.47;;;11.07;69.46
64853;BME280;56050;55.558;-4.644;2022-10-16T04:43:38;99505.41;;;11.07;70.10
64853;BME280;56050;55.558;-4.644;2022-10-16T04:46:03;99530.38;;;11.07;70.59
64853;BME280;56050;55.558;-4.644;2022-10-16T04:48:30;99542.75;;;11.05;70.71
64853;BME280;56050;55.558;-4.644;2022-10-16T04:50:56;99558.19;;;11.04;71.06
64853;BME280;56050;55.558;-4.644;2022-10-16T04:53:21;99564.69;;;11.07;71.31
64853;BME280;56050;55.558;-4.644;2022-10-16T04:55:47;99585.75;;;11.12;71.13
64853;BME280;56050;55.558;-4.644;2022-10-16T04:58:12;99581.03;;;11.16;71.11
64853;BME280;56050;55.558;-4.644;2022-10-16T05:00:38;99572.03;;;11.23;71.02
64853;BME280;56050;55.558;-4.644;2022-10-16T05:03:04;99575.78;;;11.29;70.94
64853;BME280;56050;55.558;-4.644;2022-10-16T05:05:32;99584.88;;;11.35;70.74
64853;BME280;56050;55.558;-4.644;2022-10-16T05:07:58;99611.34;;;11.40;70.43
64853;BME280;56050;55.558;-4.644;2022-10-16T05:10:23;99623.16;;;11.46;70.02
64853;BME280;56050;55.558;-4.644;2022-10-16T05:12:49;99643.88;;;11.49;69.45
64853;BME280;56050;55.558;-4.644;2022-10-16T05:15:15;99634.28;;;11.48;68.88
64853;BME280;56050;55.558;-4.644;2022-10-16T05:17:40;99658.97;;;11.46;68.69
64853;BME280;56050;55.558;-4.644;2022-10-16T05:20:06;99649.72;;;11.47;68.68
64853;BME280;56050;55.558;-4.644;2022-10-16T05:22:32;99672.38;;;11.50;68.32
64853;BME280;56050;55.558;-4.644;2022-10-16T05:24:57;99661.84;;;11.55;68.06
64853;BME280;56050;55.558;-4.644;2022-10-16T05:27:22;99673.81;;;11.54;67.75
64853;BME280;56050;55.558;-4.644;2022-10-16T05:29:48;99686.41;;;11.61;67.75
64853;BME280;56050;55.558;-4.644;2022-10-16T05:32:15;99689.38;;;11.66;67.27
64853;BME280;56050;55.558;-4.644;2022-10-16T05:34:41;99707.38;;;11.73;66.90
64853;BME280;56050;55.558;-4.644;2022-10-16T05:37:06;99717.75;;;11.74;66.09
64853;BME280;56050;55.558;-4.644;2022-10-16T05:39:32;99711.59;;;11.74;65.22
64853;BME280;56050;55.558;-4.644;2022-10-16T05:41:57;99730.06;;;11.75;64.81
64853;BME280;56050;55.558;-4.644;2022-10-16T05:44:23;99743.06;;;11.81;64.65
64853;BME280;56050;55.558;-4.644;2022-10-16T05:46:48;99769.53;;;11.86;64.68
64853;BME280;56050;55.558;-4.644;2022-10-16T05:49:14;99764.91;;;11.86;64.05
64853;BME280;56050;55.558;-4.644;2022-10-16T05:51:39;99782.22;;;11.89;63.48
64853;BME280;56050;55.558;-4.644;2022-10-16T05:54:06;99782.53;;;11.91;63.62
64853;BME280;56050;55.558;-4.644;2022-10-16T05:56:32;99792.94;;;11.92;63.66
64853;BME280;56050;55.558;-4.644;2022-10-16T05:58:57;99784.41;;;11.94;64.05
64853;BME280;56050;55.558;-4.644;2022-10-16T06:01:22;99799.44;;;11.95;63.50
64853;BME280;56050;55.558;-4.644;2022-10-16T06:03:50;99803.31;;;11.94;63.79
64853;BME280;56050;55.558;-4.644;2022-10-16T06:06:22;99801.44;;;11.91;63.23
64853;BME280;56050;55.558;-4.644;2022-10-16T06:08:49;99832.22;;;11.93;63.49
64853;BME280;56050;55.558;-4.644;2022-10-16T06:11:17;99836.88;;;11.93;63.55
64853;BME280;56050;55.558;-4.644;2022-10-16T06:13:43;99825.31;;;11.92;63.56
64853;BME280;56050;55.558;-4.644;2022-10-16T06:16:11;99846.09;;;11.95;63.52
64853;BME280;56050;55.558;-4.644;2022-10-16T06:18:37;99839.16;;;11.94;63.23
64853;BME280;56050;55.558;-4.644;2022-10-16T06:21:10;99852.31;;;11.92;63.06
64853;BME280;56050;55.558;-4.644;2022-10-16T06:23:36;99865.03;;;11.92;63.41
64853;BME280;56050;55.558;-4.644;2022-10-16T06:26:13;99874.78;;;11.86;63.18
64853;BME280;56050;55.558;-4.644;2022-10-16T06:28:39;99884.16;;;11.81;62.91
64853;BME280;56050;55.558;-4.644;2022-10-16T06:31:07;99885.78;;;11.75;62.66
64853;BME280;56050;55.558;-4.644;2022-10-16T06:33:32;99890.09;;;11.72;62.15
64853;BME280;56050;55.558;-4.644;2022-10-16T06:38:31;99905.63;;;11.65;61.83
64853;BME280;56050;55.558;-4.644;2022-10-16T06:40:57;99919.84;;;11.65;62.12
64853;BME280;56050;55.558;-4.644;2022-10-16T06:43:23;99921.03;;;11.64;62.27
64853;BME280;56050;55.558;-4.644;2022-10-16T06:45:56;99922.63;;;11.62;62.34
64853;BME280;56050;55.558;-4.644;2022-10-16T06:48:22;99944.56;;;11.64;62.39
64853;BME280;56050;55.558;-4.644;2022-10-16T06:51:03;99952.31;;;11.62;62.22
64853;BME280;56050;55.558;-4.644;2022-10-16T06:53:32;99965.78;;;11.62;62.32
64853;BME280;56050;55.558;-4.644;2022-10-16T06:56:05;99976.16;;;11.63;62.35
64853;BME280;56050;55.558;-4.644;2022-10-16T06:58:31;99978.47;;;11.65;62.37
64853;BME280;56050;55.558;-4.644;2022-10-16T07:00:56;99999.22;;;11.68;62.22
64853;BME280;56050;55.558;-4.644;2022-10-16T07:03:22;100002.28;;;11.70;62.01
64853;BME280;56050;55.558;-4.644;2022-10-16T07:05:47;100017.25;;;11.74;61.91
64853;BME280;56050;55.558;-4.644;2022-10-16T07:08:13;100019.13;;;11.77;61.70
64853;BME280;56050;55.558;-4.644;2022-10-16T07:10:38;100046.00;;;11.85;61.41
64853;BME280;56050;55.558;-4.644;2022-10-16T07:13:04;100054.44;;;11.87;61.34
64853;BME280;56050;55.558;-4.644;2022-10-16T07:15:29;100052.44;;;11.91;61.17
64853;BME280;56050;55.558;-4.644;2022-10-16T07:17:55;100067.41;;;11.95;61.25
64853;BME280;56050;55.558;-4.644;2022-10-16T07:20:20;100071.22;;;11.98;61.49
64853;BME280;56050;55.558;-4.644;2022-10-16T07:22:46;100076.56;;;12.01;61.59
64853;BME280;56050;55.558;-4.644;2022-10-16T07:25:11;100088.13;;;12.02;61.32
64853;BME280;56050;55.558;-4.644;2022-10-16T07:27:37;100094.63;;;12.04;61.37
64853;BME280;56050;55.558;-4.644;2022-10-16T07:30:04;100101.16;;;12.07;61.33
64853;BME280;56050;55.558;-4.644;2022-10-16T07:32:30;100113.81;;;12.10;61.13
64853;BME280;56050;55.558;-4.644;2022-10-16T07:34:56;100111.88;;;12.10;61.13
64853;BME280;56050;55.558;-4.644;2022-10-16T07:37:21;100114.59;;;12.10;61.08
64853;BME280;56050;55.558;-4.644;2022-10-16T07:39:47;100114.25;;;12.08;60.72
64853;BME280;56050;55.558;-4.644;2022-10-16T07:42:12;100127.75;;;12.08;60.43
64853;BME280;56050;55.558;-4.644;2022-10-16T07:44:38;100131.97;;;12.09;59.91
64853;BME280;56050;55.558;-4.644;2022-10-16T07:47:03;100136.63;;;12.09;58.66
64853;BME280;56050;55.558;-4.644;2022-10-16T07:49:29;100150.03;;;12.12;58.75
64853;BME280;56050;55.558;-4.644;2022-10-16T07:51:54;100160.78;;;12.16;58.83
64853;BME280;56050;55.558;-4.644;2022-10-16T07:54:20;100171.19;;;12.17;58.13
64853;BME280;56050;55.558;-4.644;2022-10-16T07:56:45;100176.59;;;12.17;57.63
64853;BME280;56050;55.558;-4.644;2022-10-16T07:59:10;100174.63;;;12.18;57.32
64853;BME280;56050;55.558;-4.644;2022-10-16T08:01:36;100186.97;;;12.19;57.42
64853;BME280;56050;55.558;-4.644;2022-10-16T08:04:01;100229.03;;;12.20;57.48
64853;BME280;56050;55.558;-4.644;2022-10-16T08:06:27;100197.78;;;12.19;57.56
64853;BME280;56050;55.558;-4.644;2022-10-16T08:08:52;100213.97;;;12.19;56.73
64853;BME280;56050;55.558;-4.644;2022-10-16T08:11:18;100231.75;;;12.16;56.36
64853;BME280;56050;55.558;-4.644;2022-10-16T08:13:43;100237.94;;;12.17;55.36
64853;BME280;56050;55.558;-4.644;2022-10-16T08:16:09;100247.97;;;12.16;55.99
64853;BME280;56050;55.558;-4.644;2022-10-16T08:18:39;100250.25;;;12.18;55.79
64853;BME280;56050;55.558;-4.644;2022-10-16T08:21:06;100257.59;;;12.17;55.76
64853;BME280;56050;55.558;-4.644;2022-10-16T08:23:33;100252.94;;;12.18;55.16
64853;BME280;56050;55.558;-4.644;2022-10-16T08:26:03;100274.16;;;12.19;54.90
64853;BME280;56050;55.558;-4.644;2022-10-16T08:28:28;100274.50;;;12.21;55.47
64853;BME280;56050;55.558;-4.644;2022-10-16T08:30:54;100280.25;;;12.23;56.19
64853;BME280;56050;55.558;-4.644;2022-10-16T08:33:22;100289.91;;;12.24;56.29
64853;BME280;56050;55.558;-4.644;2022-10-16T08:35:54;100295.25;;;12.28;56.15
64853;BME280;56050;55.558;-4.644;2022-10-16T08:38:20;100301.34;;;12.32;56.40
64853;BME280;56050;55.558;-4.644;2022-10-16T08:40:45;100311.31;;;12.38;56.49
64853;BME280;56050;55.558;-4.644;2022-10-16T08:49:12;100343.47;;;12.56;55.25
64853;BME280;56050;55.558;-4.644;2022-10-16T08:51:41;100354.59;;;12.62;55.47
64853;BME280;56050;55.558;-4.644;2022-10-16T08:54:29;100365.75;;;12.64;54.50
64853;BME280;56050;55.558;-4.644;2022-10-16T08:56:57;100369.91;;;12.68;53.78
64853;BME280;56050;55.558;-4.644;2022-10-16T08:59:26;100367.19;;;12.72;54.54
64853;BME280;56050;55.558;-4.644;2022-10-16T09:01:52;100382.16;;;12.76;55.04
64853;BME280;56050;55.558;-4.644;2022-10-16T09:12:26;100404.00;;;12.89;57.31
64853;BME280;56050;55.558;-4.644;2022-10-16T09:22:53;100420.91;;;12.93;58.78
64853;BME280;56050;55.558;-4.644;2022-10-16T09:25:21;100439.44;;;12.94;58.53
64853;BME280;56050;55.558;-4.644;2022-10-16T09:27:49;100437.13;;;12.93;57.98
64853;BME280;56050;55.558;-4.644;2022-10-16T09:30:19;100451.03;;;12.95;57.90
64853;BME280;56050;55.558;-4.644;2022-10-16T09:32:47;100461.00;;;12.98;57.77
64853;BME280;56050;55.558;-4.644;2022-10-16T09:35:17;100466.03;;;13.00;57.94
64853;BME280;56050;55.558;-4.644;2022-10-16T09:37:47;100465.22;;;13.03;57.99
64853;BME280;56050;55.558;-4.644;2022-10-16T09:40:37;100479.44;;;13.07;58.21
64853;BME280;56050;55.558;-4.644;2022-10-16T09:46:06;100488.50;;;13.23;58.08
64853;BME280;56050;55.558;-4.644;2022-10-16T09:48:48;100500.00;;;13.31;58.09
64853;BME280;56050;55.558;-4.644;2022-10-16T09:51:21;100503.41;;;13.35;57.93
64853;BME280;56050;55.558;-4.644;2022-10-16T09:53:47;100507.16;;;13.41;57.94
64853;BME280;56050;55.558;-4.644;2022-10-16T09:56:31;100504.41;;;13.44;57.89
64853;BME280;56050;55.558;-4.644;2022-10-16T09:59:18;100522.13;;;13.49;57.56
64853;BME280;56050;55.558;-4.644;2022-10-16T10:01:47;100519.00;;;13.50;57.85
64853;BME280;56050;55.558;-4.644;2022-10-16T10:04:13;100525.56;;;13.53;57.54
64853;BME280;56050;55.558;-4.644;2022-10-16T10:06:46;100535.94;;;13.54;57.66
64853;BME280;56050;55.558;-4.644;2022-10-16T10:09:25;100542.94;;;13.52;58.18
64853;BME280;56050;55.558;-4.644;2022-10-16T10:11:59;100548.44;;;13.45;58.16
64853;BME280;56050;55.558;-4.644;2022-10-16T10:14:34;100550.47;;;13.41;58.51
64853;BME280;56050;55.558;-4.644;2022-10-16T10:20:22;100556.28;;;13.39;58.73
64853;BME280;56050;55.558;-4.644;2022-10-16T10:22:46;100560.94;;;13.39;58.75
64853;BME280;56050;55.558;-4.644;2022-10-16T10:28:05;100567.16;;;13.36;58.76
64853;BME280;56050;55.558;-4.644;2022-10-16T10:44:01;100576.41;;;13.38;58.94
64853;BME280;56050;55.558;-4.644;2022-10-16T10:49:06;100586.66;;;13.50;59.06
64853;BME280;56050;55.558;-4.644;2022-10-16T11:07:53;100639.72;;;13.71;58.61
64853;BME280;56050;55.558;-4.644;2022-10-16T11:10:27;100642.00;;;13.73;58.16
64853;BME280;56050;55.558;-4.644;2022-10-16T11:13:34;100645.91;;;13.72;58.39
64853;BME280;56050;55.558;-4.644;2022-10-16T11:16:17;100647.81;;;13.75;58.41
64853;BME280;56050;55.558;-4.644;2022-10-16T11:18:52;100639.25;;;13.76;58.04
64853;BME280;56050;55.558;-4.644;2022-10-16T11:21:22;100639.22;;;13.80;58.10
64853;BME280;56050;55.558;-4.644;2022-10-16T11:26:19;100645.41;;;13.80;57.94
64853;BME280;56050;55.558;-4.644;2022-10-16T11:28:49;100657.41;;;13.79;57.80
64853;BME280;56050;55.558;-4.644;2022-10-16T11:31:29;100660.88;;;13.80;58.16
64853;BME280;56050;55.558;-4.644;2022-10-16T11:34:10;100664.34;;;13.80;58.05
64853;BME280;56050;55.558;-4.644;2022-10-16T11:36:52;100661.66;;;13.80;57.57
64853;BME280;56050;55.558;-4.644;2022-10-16T11:39:22;100674.75;;;13.82;57.65
64853;BME280;56050;55.558;-4.644;2022-10-16T11:49:39;100673.19;;;13.84;57.29
64853;BME280;56050;55.558;-4.644;2022-10-16T11:52:19;100668.09;;;13.86;57.26
64853;BME280;56050;55.558;-4.644;2022-10-16T11:55:20;100670.38;;;13.91;57.45
64853;BME280;56050;55.558;-4.644;2022-10-16T11:57:56;100667.56;;;13.98;57.28
64853;BME280;56050;55.558;-4.644;2022-10-16T12:08:39;100663.03;;;14.15;57.53
64853;BME280;56050;55.558;-4.644;2022-10-16T12:11:31;100663.75;;;14.19;57.89
64853;BME280;56050;55.558;-4.644;2022-10-16T12:16:57;100663.25;;;14.28;57.72
64853;BME280;56050;55.558;-4.644;2022-10-16T12:19:27;100656.97;;;14.31;57.90
64853;BME280;56050;55.558;-4.644;2022-10-16T12:21:56;100664.34;;;14.30;57.74
64853;BME280;56050;55.558;-4.644;2022-10-16T12:26:48;100671.38;;;14.28;57.98
64853;BME280;56050;55.558;-4.644;2022-10-16T12:29:35;100672.94;;;14.25;58.10
64853;BME280;56050;55.558;-4.644;2022-10-16T12:32:04;100679.94;;;14.23;58.25
64853;BME280;56050;55.558;-4.644;2022-10-16T12:37:11;100695.06;;;14.20;58.27
64853;BME280;56050;55.558;-4.644;2022-10-16T12:39:38;100704.75;;;14.21;58.16
64853;BME280;56050;55.558;-4.644;2022-10-16T12:42:17;100719.06;;;14.22;58.20
64853;BME280;56050;55.558;-4.644;2022-10-16T12:44:44;100721.34;;;14.23;58.10
64853;BME280;56050;55.558;-4.644;2022-10-16T12:47:20;100733.75;;;14.24;58.19
64853;BME280;56050;55.558;-4.644;2022-10-16T12:49:51;100747.25;;;14.28;57.86
64853;BME280;56050;55.558;-4.644;2022-10-16T12:54:50;100758.00;;;14.35;57.97
64853;BME280;56050;55.558;-4.644;2022-10-16T13:00:13;100764.09;;;14.39;58.13
64853;BME280;56050;55.558;-4.644;2022-10-16T13:07:51;100766.78;;;14.42;58.11
64853;BME280;56050;55.558;-4.644;2022-10-16T13:16:10;100766.41;;;14.40;57.99
64853;BME280;56050;55.558;-4.644;2022-10-16T13:27:12;100778.22;;;14.27;58.25
64853;BME280;56050;55.558;-4.644;2022-10-16T13:29:43;100780.16;;;14.26;58.25
64853;BME280;56050;55.558;-4.644;2022-10-16T13:32:10;100786.34;;;14.27;58.28
64853;BME280;56050;55.558;-4.644;2022-10-16T13:34:48;100793.69;;;14.26;58.39
64853;BME280;56050;55.558;-4.644;2022-10-16T13:37:22;100794.88;;;14.25;58.05
64853;BME280;56050;55.558;-4.644;2022-10-16T13:39:48;100792.94;;;14.26;58.40
64853;BME280;56050;55.558;-4.644;2022-10-16T13:42:25;100803.00;;;14.25;58.17
64853;BME280;56050;55.558;-4.644;2022-10-16T13:44:53;100803.00;;;14.25;58.29
64853;BME280;56050;55.558;-4.644;2022-10-16T13:47:21;100800.28;;;14.25;58.30
64853;BME280;56050;55.558;-4.644;2022-10-16T13:49:59;100804.53;;;14.26;58.47
64853;BME280;56050;55.558;-4.644;2022-10-16T13:52:25;100801.00;;;14.29;58.35
64853;BME280;56050;55.558;-4.644;2022-10-16T13:54:51;100802.56;;;14.30;58.41
64853;BME280;56050;55.558;-4.644;2022-10-16T13:57:17;100806.44;;;14.33;58.26
64853;BME280;56050;55.558;-4.644;2022-10-16T13:59:43;100809.47;;;14.35;58.22
64853;BME280;56050;55.558;-4.644;2022-10-16T14:02:21;100812.19;;;14.35;58.48
64853;BME280;56050;55.558;-4.644;2022-10-16T14:04:47;100814.91;;;14.35;58.20
64853;BME280;56050;55.558;-4.644;2022-10-16T14:07:24;100802.91;;;14.36;58.38
64853;BME280;56050;55.558;-4.644;2022-10-16T14:09:52;100804.41;;;14.37;58.43
64853;BME280;56050;55.558;-4.644;2022-10-16T14:12:19;100808.31;;;14.36;58.20
64853;BME280;56050;55.558;-4.644;2022-10-16T14:14:47;100805.19;;;14.37;58.07
64853;BME280;56050;55.558;-4.644;2022-10-16T14:17:18;100798.59;;;14.38;58.09
64853;BME280;56050;55.558;-4.644;2022-10-16T14:19:48;100802.06;;;14.39;58.10
64853;BME280;56050;55.558;-4.644;2022-10-16T14:22:33;100808.25;;;14.39;58.01
64853;BME280;56050;55.558;-4.644;2022-10-16T14:25:00;100809.78;;;14.40;58.03
64853;BME280;56050;55.558;-4.644;2022-10-16T14:32:34;100800.84;;;14.43;58.00
64853;BME280;56050;55.558;-4.644;2022-10-16T14:34:59;100803.13;;;14.45;57.85
64853;BME280;56050;55.558;-4.644;2022-10-16T14:37:29;100795.78;;;14.45;58.00
64853;BME280;56050;55.558;-4.644;2022-10-16T14:39:55;100791.91;;;14.46;58.12
64853;BME280;56050;55.558;-4.644;2022-10-16T14:42:23;100783.34;;;14.48;57.86
64853;BME280;56050;55.558;-4.644;2022-10-16T14:44:53;100783.28;;;14.51;57.96
64853;BME280;56050;55.558;-4.644;2022-10-16T14:47:22;100786.78;;;14.52;57.95
64853;BME280;56050;55.558;-4.644;2022-10-16T14:49:52;100796.84;;;14.51;57.85
64853;BME280;56050;55.558;-4.644;2022-10-16T14:52:20;100793.00;;;14.49;57.87
64853;BME280;56050;55.558;-4.644;2022-10-16T14:54:48;100794.94;;;14.48;57.87
64853;BME280;56050;55.558;-4.644;2022-10-16T14:57:28;100793.00;;;14.49;57.98
64853;BME280;56050;55.558;-4.644;2022-10-16T14:59:56;100787.94;;;14.51;58.01
64853;BME280;56050;55.558;-4.644;2022-10-16T15:02:33;100784.47;;;14.50;57.98
64853;BME280;56050;55.558;-4.644;2022-10-16T15:05:22;100790.69;;;14.47;58.16
64853;BME280;56050;55.558;-4.644;2022-10-16T15:07:53;100795.38;;;14.47;57.99